首页
METAR-TAF:

METAR-TAF

机场 :

吕伐登, 荷兰

纬度: 53-13N, 经度: 005-46E, 海拔: 1米

当前天气观测

该预报发布于14分钟前的09:25 UTC
风速8节,风向南转南东,在东转东南之间变化
温度 6°C
湿度 93%
气压 1004 hPa
能見度: 8000
少量云层高于5900英尺
多云层高于7000英尺
阴天层高于16000英尺
多云层高于4500英尺
轻雾, 轻雾

METAR: EHLW 220925Z AUTO 15008KT 120V180 8000 BR FEW059 BKN070 OVC160 06/05 Q1004 BLU 15008KT 8000 BR BKN045

时间: 10:39 (09:39 UTC)

预报

该预报发布于4小时和11分钟前的05:28 UTC
预报有效从22日的 06点(UTC)到 22日的 18点(UTC)
风速10节,风向南转南东
能見度: 6000
成为
从 22日的 15点(UTC)到 22日的 18点(UTC)
风速8节,风向东转东南

TAF: EHLW 220528Z 2206/2218 15010KT 6000 NSC BECMG 2215/2218 11008KT

超过4000个机场的气象观测和天气预报(METAR&TAF报告)。

可查询的气象台以黄色和红色小点在地图上表示。

将鼠标移到小点上方,可查看气象台名称。

然后点击查看天气观测和预报。

如需切换地图:点击带黑十字的绿色按钮放大地图;点击带横线的绿色按钮缩小地图;或者点击绿色箭头查看邻近地区的地图。


METAR-TAF: